Time;durP1;ratioP1;P1;durP2;ratioP2;P2;SDS_P1;SDS_P2;PMS_P1;PMS_P2;Temp;Humidity;BMP_temperature;BMP_pressure;BME280_temperature;BME280_humidity;BME280_pressure;Samples;Min_cycle;Max_cycle;Signal;HPM_P1;HPM_P2
2021/12/08 00:02:08;;;;;;;7.05;3.55;;;3.40;99.90;;;;;;5137228;27;20639;-81
2021/12/08 00:04:34;;;;;;;4.65;3.40;;;3.40;99.90;;;;;;5137295;27;20043;-83
2021/12/08 00:06:59;;;;;;;8.38;3.63;;;3.40;99.90;;;;;;5137352;27;20050;-80
2021/12/08 00:09:45;;;;;;;5.43;3.05;;;3.40;99.90;;;;;;5137827;27;20074;-83
2021/12/08 00:14:56;;;;;;;6.03;2.97;;;3.30;99.90;;;;;;5136493;27;20051;-79
2021/12/08 00:17:21;;;;;;;6.47;3.28;;;3.20;99.90;;;;;;5138626;27;20840;-78
2021/12/08 00:19:47;;;;;;;7.47;3.60;;;3.20;99.90;;;;;;5138836;27;20046;-77
2021/12/08 00:22:12;;;;;;;6.00;3.58;;;3.20;99.90;;;;;;5120271;27;20078;-78
2021/12/08 00:24:39;;;;;;;11.88;4.85;;;3.20;99.90;;;;;;5139363;27;20051;-80
2021/12/08 00:27:05;;;;;;;5.65;3.05;;;3.20;99.90;;;;;;5138445;27;20837;-80
2021/12/08 00:29:31;;;;;;;4.50;3.40;;;3.20;99.90;;;;;;5138878;27;20493;-82
2021/12/08 00:31:58;;;;;;;8.48;4.30;;;3.20;99.90;;;;;;5138855;27;20133;-80
2021/12/08 00:34:23;;;;;;;11.63;4.35;;;3.20;99.90;;;;;;5138529;27;20082;-81
2021/12/08 00:36:52;;;;;;;7.03;3.40;;;3.20;99.90;;;;;;5156783;27;20042;-81
2021/12/08 00:39:18;;;;;;;6.95;4.00;;;3.20;99.90;;;;;;5159649;27;20038;-78
2021/12/08 00:41:44;;;;;;;5.75;4.63;;;3.30;99.90;;;;;;5159568;27;20053;-79
2021/12/08 00:44:10;;;;;;;9.10;4.43;;;3.30;99.90;;;;;;5160006;27;20042;-78
2021/12/08 00:46:37;;;;;;;4.45;3.15;;;3.30;99.90;;;;;;5140795;27;20054;-79
2021/12/08 00:49:04;;;;;;;6.53;4.07;;;3.30;99.90;;;;;;5121133;27;20082;-77
2021/12/08 00:51:30;;;;;;;13.48;3.90;;;3.30;99.90;;;;;;5100479;28;20851;-78
2021/12/08 00:53:57;;;;;;;9.38;4.20;;;3.30;99.90;;;;;;5118548;28;20043;-78
2021/12/08 00:56:22;;;;;;;3.50;3.00;;;3.40;99.90;;;;;;5156539;27;20099;-77
2021/12/08 00:58:48;;;;;;;5.68;3.40;;;3.40;99.90;;;;;;5160703;27;20046;-78
2021/12/08 01:01:15;;;;;;;18.30;4.35;;;3.40;99.90;;;;;;5150895;27;20053;-78
2021/12/08 01:03:41;;;;;;;4.97;3.80;;;3.40;99.90;;;;;;5118959;27;20043;-78
2021/12/08 01:06:06;;;;;;;7.28;3.95;;;3.20;99.90;;;;;;5135119;27;20718;-80
2021/12/08 01:08:33;;;;;;;6.65;3.63;;;3.50;99.90;;;;;;5136264;27;20053;-79
2021/12/08 01:11:05;;;;;;;6.20;3.83;;;3.50;99.90;;;;;;5137029;27;20061;-76
2021/12/08 01:13:30;;;;;;;6.95;4.90;;;3.50;99.90;;;;;;5119263;27;20078;-77
2021/12/08 01:15:58;;;;;;;9.27;5.50;;;2.50;99.90;;;;;;5140853;27;20093;-78
2021/12/08 01:18:27;;;;;;;5.03;3.97;;;3.50;99.90;;;;;;5140647;27;20162;-78
2021/12/08 01:20:56;;;;;;;7.47;3.58;;;3.60;99.90;;;;;;5140540;27;20055;-78
2021/12/08 01:23:23;;;;;;;8.40;3.53;;;3.60;99.90;;;;;;5140975;27;20085;-78
2021/12/08 01:25:49;;;;;;;4.95;3.50;;;3.60;99.90;;;;;;5141169;27;20043;-78
2021/12/08 01:28:19;;;;;;;6.85;2.90;;;3.70;99.90;;;;;;5140566;27;20053;-78
2021/12/08 01:30:45;;;;;;;4.10;3.33;;;3.70;99.90;;;;;;5121738;27;20546;-78
2021/12/08 01:33:11;;;;;;;4.90;3.20;;;3.70;99.90;;;;;;5140918;27;20039;-79
2021/12/08 01:35:37;;;;;;;4.38;3.50;;;3.80;99.90;;;;;;5141538;27;20054;-79
2021/12/08 01:38:02;;;;;;;3.40;2.65;;;3.80;99.90;;;;;;5139961;27;20031;-79
2021/12/08 01:40:28;;;;;;;5.43;4.10;;;3.90;99.90;;;;;;5140067;27;20057;-78
2021/12/08 01:42:57;;;;;;;5.63;2.92;;;3.90;99.90;;;;;;5139227;27;20035;-77
2021/12/08 01:48:13;;;;;;;3.97;3.22;;;3.90;99.90;;;;;;5121290;27;20089;-77
2021/12/08 01:50:39;;;;;;;6.00;3.17;;;4.00;99.90;;;;;;5118541;27;20049;-77
2021/12/08 01:53:07;;;;;;;12.80;4.00;;;4.00;99.90;;;;;;5140052;27;20516;-77
2021/12/08 01:55:33;;;;;;;5.57;3.42;;;4.00;99.90;;;;;;5139950;27;20115;-78
2021/12/08 01:57:59;;;;;;;5.10;3.42;;;4.00;99.90;;;;;;5120822;27;20087;-78
2021/12/08 02:00:29;;;;;;;4.72;3.15;;;4.00;99.90;;;;;;5140157;27;20051;-78
2021/12/08 02:02:55;;;;;;;4.38;2.78;;;4.00;99.90;;;;;;5122541;27;20046;-78
2021/12/08 02:05:21;;;;;;;4.70;3.22;;;4.00;99.90;;;;;;5141910;27;20528;-79
2021/12/08 02:07:47;;;;;;;3.83;3.53;;;4.00;99.90;;;;;;5142435;27;20051;-79
2021/12/08 02:10:14;;;;;;;4.45;3.13;;;5.10;99.90;;;;;;5142030;27;20049;-78
2021/12/08 02:12:41;;;;;;;7.72;3.55;;;4.00;99.90;;;;;;5142047;27;20775;-79
2021/12/08 02:15:10;;;;;;;6.50;2.92;;;4.10;99.90;;;;;;5142146;27;20050;-78
2021/12/08 02:17:37;;;;;;;7.95;3.63;;;4.10;99.90;;;;;;5133850;27;20047;-78
2021/12/08 02:20:05;;;;;;;5.38;3.33;;;4.10;99.90;;;;;;5103203;27;20792;-78
2021/12/08 02:22:31;;;;;;;5.90;3.47;;;4.10;99.90;;;;;;5137849;27;20185;-79
2021/12/08 02:24:57;;;;;;;5.28;4.00;;;4.00;99.90;;;;;;5141811;27;20046;-78
2021/12/08 02:27:23;;;;;;;4.47;3.38;;;4.10;99.90;;;;;;5123515;27;20050;-79
2021/12/08 02:29:56;;;;;;;6.15;3.35;;;4.10;99.90;;;;;;5142444;27;20902;-77
2021/12/08 02:48:31;;;;;;;5.45;4.10;;;4.10;99.90;;;;;;5162802;27;20096;-80
2021/12/08 02:50:57;;;;;;;3.92;3.47;;;4.10;99.90;;;;;;5162933;27;20496;-80
2021/12/08 02:53:23;;;;;;;5.63;3.70;;;4.10;99.90;;;;;;5162656;27;20125;-82
2021/12/08 02:55:49;;;;;;;3.97;3.05;;;4.10;99.90;;;;;;5162773;27;20049;-79
2021/12/08 02:58:16;;;;;;;5.53;3.17;;;4.10;99.90;;;;;;5144111;27;20493;-80
2021/12/08 03:00:55;;;;;;;10.65;3.83;;;4.10;99.90;;;;;;5142935;27;20046;-79
2021/12/08 03:03:20;;;;;;;5.10;3.30;;;4.10;99.90;;;;;;5123714;27;20076;-81
2021/12/08 03:05:46;;;;;;;6.78;3.95;;;4.10;99.90;;;;;;5141645;27;20588;-82
2021/12/08 03:08:13;;;;;;;6.13;3.95;;;4.20;99.90;;;;;;5141756;27;20173;-80
2021/12/08 03:10:45;;;;;;;25.08;3.70;;;4.20;99.90;;;;;;5142499;27;20047;-81
2021/12/08 03:13:12;;;;;;;5.53;4.00;;;4.20;99.90;;;;;;5143462;27;20047;-81
2021/12/08 03:15:38;;;;;;;3.35;3.05;;;4.20;99.90;;;;;;5142107;27;20050;-80
2021/12/08 03:18:04;;;;;;;8.18;4.53;;;4.20;99.90;;;;;;5139198;27;20096;-80
2021/12/08 03:20:40;;;;;;;7.20;3.50;;;4.20;99.90;;;;;;5137341;27;20859;-80
2021/12/08 03:23:20;;;;;;;7.07;4.15;;;4.30;99.90;;;;;;5121589;27;20811;-80
2021/12/08 03:25:55;;;;;;;5.90;3.50;;;4.30;99.90;;;;;;5133300;27;20050;-80
2021/12/08 03:28:25;;;;;;;5.13;3.45;;;4.30;99.90;;;;;;5161912;27;20513;-79
2021/12/08 03:31:04;;;;;;;6.85;5.05;;;4.30;99.90;;;;;;5143780;27;20058;-80
2021/12/08 03:33:30;;;;;;;5.03;4.40;;;4.30;99.90;;;;;;5162720;27;20050;-80
2021/12/08 03:35:56;;;;;;;8.80;4.80;;;4.30;99.90;;;;;;5161926;27;20388;-81
2021/12/08 03:38:23;;;;;;;5.20;3.83;;;4.40;99.90;;;;;;5146527;27;20646;-79
2021/12/08 03:40:51;;;;;;;10.80;3.67;;;4.40;99.90;;;;;;5139877;27;20193;-80
2021/12/08 03:43:18;;;;;;;4.82;4.22;;;4.40;99.90;;;;;;5161335;27;20050;-81
2021/12/08 03:45:47;;;;;;;9.45;3.92;;;5.60;99.90;;;;;;5160655;27;20127;-80
2021/12/08 03:48:29;;;;;;;7.63;3.85;;;4.40;99.90;;;;;;5145098;27;20390;-80
2021/12/08 03:50:56;;;;;;;5.57;4.05;;;4.50;99.90;;;;;;5136308;27;20051;-80
2021/12/08 03:53:21;;;;;;;6.55;4.35;;;4.50;99.90;;;;;;5123576;27;20052;-81
2021/12/08 03:55:50;;;;;;;5.82;4.40;;;4.50;99.90;;;;;;5128034;27;20046;-80
2021/12/08 03:58:16;;;;;;;10.20;4.97;;;4.50;99.90;;;;;;5145740;27;20657;-80
2021/12/08 04:00:43;;;;;;;5.78;4.47;;;4.50;99.90;;;;;;5132601;27;20050;-79
2021/12/08 04:03:11;;;;;;;5.70;5.18;;;4.60;99.90;;;;;;5145800;27;20050;-80
2021/12/08 04:05:51;;;;;;;5.18;4.22;;;4.60;99.90;;;;;;5164355;27;20650;-80
2021/12/08 04:08:20;;;;;;;8.57;4.63;;;4.60;99.90;;;;;;5163471;27;20893;-80
2021/12/08 04:10:49;;;;;;;7.50;4.57;;;4.60;99.90;;;;;;5122808;27;20096;-80
2021/12/08 04:13:17;;;;;;;5.93;4.57;;;4.60;99.90;;;;;;5121056;28;20091;-80
2021/12/08 04:15:43;;;;;;;7.65;4.70;;;4.60;99.90;;;;;;5132973;27;20050;-80
2021/12/08 04:18:09;;;;;;;7.00;5.93;;;4.70;99.90;;;;;;5149396;27;20050;-79
2021/12/08 04:20:48;;;;;;;7.88;4.70;;;4.70;99.90;;;;;;5141531;27;20134;-79
2021/12/08 04:23:19;;;;;;;10.18;6.25;;;4.70;99.90;;;;;;5120603;28;20398;-79
2021/12/08 04:25:48;;;;;;;6.93;5.13;;;4.70;99.90;;;;;;5148360;27;20031;-79
2021/12/08 04:28:19;;;;;;;5.95;5.35;;;4.70;99.90;;;;;;5120127;28;20554;-79
2021/12/08 04:31:16;;;;;;;6.32;5.07;;;4.70;99.90;;;;;;5119830;28;20046;-78
2021/12/08 04:33:42;;;;;;;6.78;5.22;;;4.80;99.90;;;;;;5107865;27;20070;-79
2021/12/08 04:36:11;;;;;;;9.30;5.82;;;4.80;99.90;;;;;;5162230;27;20038;-79
2021/12/08 04:38:41;;;;;;;21.65;8.18;;;4.80;99.90;;;;;;5161386;27;20053;-78
2021/12/08 04:41:27;;;;;;;5.78;4.97;;;4.90;99.90;;;;;;5143117;27;20054;-79
2021/12/08 04:44:12;;;;;;;11.73;6.85;;;4.90;99.90;;;;;;5161657;27;20053;-78
2021/12/08 04:52:48;;;;;;;6.25;4.75;;;4.90;99.90;;;;;;5165488;27;20062;-79
2021/12/08 05:03:39;;;;;;;8.27;6.25;;;5.00;99.90;;;;;;5144645;27;20183;-77
2021/12/08 05:06:22;;;;;;;9.38;6.70;;;5.10;99.90;;;;;;5143773;27;20691;-77
2021/12/08 05:08:53;;;;;;;8.45;7.63;;;5.10;99.90;;;;;;5152338;27;20046;-77
2021/12/08 05:11:33;;;;;;;8.88;6.05;;;5.10;99.90;;;;;;5146785;27;20058;-77
2021/12/08 05:14:03;;;;;;;8.43;5.80;;;5.20;99.90;;;;;;5162447;27;20701;-78
2021/12/08 05:16:32;;;;;;;8.02;5.93;;;5.20;99.90;;;;;;5123879;27;20474;-77
2021/12/08 05:18:59;;;;;;;15.07;7.05;;;5.20;99.90;;;;;;5123703;27;20051;-77
2021/12/08 05:21:43;;;;;;;8.82;5.95;;;5.20;99.90;;;;;;5130551;27;20043;-76
2021/12/08 05:24:13;;;;;;;9.23;7.25;;;5.20;99.90;;;;;;5129318;27;20536;-75
2021/12/08 05:26:44;;;;;;;8.48;6.45;;;5.30;99.90;;;;;;5164063;27;20608;-76
2021/12/08 05:29:19;;;;;;;10.48;6.38;;;5.30;99.90;;;;;;5145687;27;20536;-76
2021/12/08 05:31:46;;;;;;;5.75;5.25;;;5.30;99.90;;;;;;5165309;27;20050;-76
2021/12/08 05:34:12;;;;;;;7.93;6.53;;;5.30;99.90;;;;;;5164509;27;20042;-76
2021/12/08 05:36:39;;;;;;;8.43;6.10;;;5.40;99.90;;;;;;5145903;27;20076;-75
2021/12/08 05:39:10;;;;;;;8.05;6.30;;;5.40;99.90;;;;;;5164944;27;20068;-76
2021/12/08 05:41:38;;;;;;;6.38;5.78;;;5.40;99.90;;;;;;5164850;27;20046;-76
2021/12/08 05:44:05;;;;;;;7.65;5.70;;;5.40;99.90;;;;;;5163867;27;20401;-76
2021/12/08 05:46:35;;;;;;;6.60;5.88;;;5.50;99.90;;;;;;5145119;27;20065;-76
2021/12/08 05:49:02;;;;;;;7.78;5.32;;;5.50;99.90;;;;;;5163810;27;20492;-76
2021/12/08 05:51:31;;;;;;;7.90;5.40;;;5.50;99.90;;;;;;5164251;27;20050;-75
2021/12/08 05:54:05;;;;;;;7.22;4.97;;;5.50;99.90;;;;;;5163884;27;20465;-75
2021/12/08 05:56:32;;;;;;;7.30;5.55;;;5.60;99.90;;;;;;5145042;27;20054;-75
2021/12/08 05:59:00;;;;;;;8.55;6.00;;;5.60;99.90;;;;;;5162539;27;20050;-75
2021/12/08 06:01:34;;;;;;;9.50;5.57;;;5.70;99.90;;;;;;5129231;27;20084;-75
2021/12/08 06:04:01;;;;;;;6.38;4.70;;;5.80;99.90;;;;;;5119964;27;20043;-75
2021/12/08 06:06:27;;;;;;;6.20;4.97;;;5.70;99.90;;;;;;5119676;27;20062;-75
2021/12/08 06:08:54;;;;;;;7.72;5.55;;;5.70;99.90;;;;;;5137763;27;20053;-75
2021/12/08 06:11:21;;;;;;;7.68;6.00;;;5.80;99.90;;;;;;5141799;27;20050;-75
2021/12/08 06:13:48;;;;;;;5.93;4.93;;;5.80;99.90;;;;;;5160827;27;20061;-75
2021/12/08 06:16:15;;;;;;;6.25;4.50;;;5.70;99.90;;;;;;5119558;27;20043;-76
2021/12/08 06:18:42;;;;;;;9.30;4.38;;;5.80;99.90;;;;;;5119223;27;20047;-76
2021/12/08 06:21:12;;;;;;;7.75;5.35;;;5.80;99.90;;;;;;5101154;27;20086;-75
2021/12/08 06:23:39;;;;;;;8.50;5.45;;;5.80;99.90;;;;;;5119808;27;20051;-75
2021/12/08 06:26:06;;;;;;;6.13;4.10;;;5.80;99.90;;;;;;5158880;27;20042;-75
2021/12/08 06:28:32;;;;;;;6.80;4.50;;;5.80;99.90;;;;;;5141777;27;20053;-75
2021/12/08 06:30:58;;;;;;;6.95;4.45;;;5.80;99.90;;;;;;5153019;27;20469;-75
2021/12/08 06:33:23;;;;;;;9.75;5.07;;;5.80;99.90;;;;;;5129317;27;20712;-75
2021/12/08 06:35:54;;;;;;;5.78;4.50;;;5.90;99.90;;;;;;5115107;27;20042;-75
2021/12/08 06:38:22;;;;;;;5.75;4.30;;;5.80;99.90;;;;;;5119160;27;20047;-74
2021/12/08 06:40:55;;;;;;;7.60;5.05;;;5.80;99.90;;;;;;5119572;27;20051;-75
2021/12/08 06:43:26;;;;;;;11.38;5.90;;;5.80;99.90;;;;;;5100765;27;20083;-74
2021/12/08 06:45:56;;;;;;;6.20;4.43;;;5.80;99.90;;;;;;5118530;27;20533;-75
2021/12/08 06:48:26;;;;;;;5.22;3.88;;;5.80;99.90;;;;;;5119228;27;20518;-75
2021/12/08 06:51:13;;;;;;;8.20;4.60;;;5.80;99.90;;;;;;5147302;27;20046;-75
2021/12/08 06:53:40;;;;;;;5.53;4.28;;;5.90;99.90;;;;;;5160089;27;20530;-75
2021/12/08 06:56:13;;;;;;;7.05;4.53;;;5.90;99.90;;;;;;5160414;27;20199;-75
2021/12/08 06:58:43;;;;;;;5.57;3.88;;;5.90;99.90;;;;;;5155860;27;20038;-75
2021/12/08 07:02:06;;;;;;;7.72;3.83;;;5.80;99.90;;;;;;5118719;27;20042;-75
2021/12/08 07:07:11;;;;;;;6.20;4.22;;;5.70;99.90;;;;;;5135451;27;20221;-75
2021/12/08 07:09:47;;;;;;;8.32;4.57;;;5.80;99.90;;;;;;5118723;27;20051;-76
2021/12/08 07:12:29;;;;;;;5.47;3.42;;;5.80;99.90;;;;;;5137123;27;20066;-75
2021/12/08 07:15:22;;;;;;;5.97;3.47;;;5.70;99.90;;;;;;5119087;27;20386;-75
2021/12/08 07:17:59;;;;;;;6.95;3.20;;;5.70;99.90;;;;;;5137814;27;20703;-76
2021/12/08 07:20:42;;;;;;;7.13;3.38;;;5.70;99.90;;;;;;5118447;27;20074;-75
2021/12/08 07:23:10;;;;;;;;;;;5.70;99.90;;;;;;4754029;27;10000393;-76
2021/12/08 07:25:36;;;;;;;6.68;3.55;;;5.30;99.90;;;;;;5133753;27;19923;-75
2021/12/08 07:28:04;;;;;;;3.88;2.95;;;5.60;99.90;;;;;;4425779;27;10000733;-74
2021/12/08 07:30:47;;;;;;;6.05;3.25;;;5.50;99.90;;;;;;5135995;27;20049;-75
2021/12/08 07:33:14;;;;;;;5.63;4.68;;;5.50;99.90;;;;;;5134401;27;20049;-74
2021/12/08 07:35:44;;;;;;;8.75;3.25;;;5.50;99.90;;;;;;5134228;27;20057;-74
2021/12/08 07:38:13;;;;;;;4.15;2.92;;;5.50;99.90;;;;;;5115400;27;20796;-75
2021/12/08 07:41:01;;;;;;;6.22;3.05;;;5.50;99.90;;;;;;5135776;27;20079;-74
2021/12/08 07:43:31;;;;;;;4.47;2.72;;;5.50;99.90;;;;;;5133853;27;20128;-75
2021/12/08 07:46:03;;;;;;;4.45;3.10;;;5.50;99.90;;;;;;5118165;27;20061;-75
2021/12/08 07:48:35;;;;;;;3.87;3.10;;;5.40;99.90;;;;;;5115744;27;20110;-75
2021/12/08 07:51:06;;;;;;;3.58;3.03;;;5.50;99.90;;;;;;5137847;27;20537;-73
2021/12/08 07:53:32;;;;;;;5.90;2.83;;;5.50;99.90;;;;;;5136106;27;20050;-75
2021/12/08 07:56:03;;;;;;;6.13;2.47;;;5.50;99.90;;;;;;5117665;27;20125;-74
2021/12/08 07:58:32;;;;;;;2.85;2.55;;;5.50;99.90;;;;;;5136556;27;20049;-75
2021/12/08 08:01:05;;;;;;;3.35;2.63;;;5.50;99.90;;;;;;5135977;27;20121;-75
2021/12/08 08:03:32;;;;;;;5.03;2.42;;;5.50;99.90;;;;;;5133741;27;20077;-75
2021/12/08 08:06:00;;;;;;;5.32;2.75;;;5.40;99.90;;;;;;5116694;27;20897;-74
2021/12/08 08:08:30;;;;;;;3.95;2.30;;;5.50;99.90;;;;;;5138462;27;20047;-75
2021/12/08 08:11:06;;;;;;;4.93;2.22;;;5.40;99.90;;;;;;5135609;27;20054;-75
2021/12/08 08:13:32;;;;;;;4.55;2.85;;;5.40;99.90;;;;;;5115955;27;20034;-75
2021/12/08 08:16:05;;;;;;;4.70;2.30;;;5.50;99.90;;;;;;5135892;27;20055;-74
2021/12/08 08:18:36;;;;;;;6.43;2.42;;;5.50;99.90;;;;;;5135956;27;20074;-75
2021/12/08 08:21:07;;;;;;;2.55;2.20;;;5.50;99.90;;;;;;5135221;27;20501;-74
2021/12/08 08:23:34;;;;;;;3.10;1.70;;;5.50;99.90;;;;;;5139770;27;20200;-74
2021/12/08 08:26:01;;;;;;;4.93;2.00;;;5.50;99.90;;;;;;5142673;27;20045;-75
2021/12/08 08:28:27;;;;;;;7.25;2.63;;;5.60;99.90;;;;;;5140023;27;20046;-74
2021/12/08 08:30:59;;;;;;;2.88;2.03;;;5.60;99.90;;;;;;5140771;27;20034;-74
2021/12/08 08:33:25;;;;;;;3.30;3.00;;;5.60;99.90;;;;;;5141016;27;20055;-74
2021/12/08 08:35:56;;;;;;;3.65;2.15;;;5.60;99.90;;;;;;5137365;27;20196;-75
2021/12/08 08:38:27;;;;;;;6.50;2.13;;;5.70;99.90;;;;;;5120722;27;20296;-74
2021/12/08 08:41:01;;;;;;;2.72;1.63;;;5.70;99.90;;;;;;5138431;27;20808;-75
2021/12/08 08:43:27;;;;;;;7.20;2.75;;;5.70;99.90;;;;;;5111500;27;20050;-73
2021/12/08 08:46:10;;;;;;;3.45;1.85;;;5.70;99.90;;;;;;5114169;27;20038;-74
2021/12/08 08:48:40;;;;;;;3.63;2.47;;;5.70;99.90;;;;;;5131799;27;20038;-75
2021/12/08 08:51:20;;;;;;;3.63;2.03;;;5.80;99.90;;;;;;5141277;27;20039;-74
2021/12/08 08:53:49;;;;;;;3.85;1.85;;;5.80;99.90;;;;;;5138129;27;20062;-74
2021/12/08 08:56:23;;;;;;;1.85;1.63;;;5.80;99.90;;;;;;5120748;27;20845;-75
2021/12/08 08:58:55;;;;;;;7.45;2.70;;;5.80;99.90;;;;;;5138645;27;20043;-75
2021/12/08 09:01:31;;;;;;;2.38;1.90;;;5.90;99.90;;;;;;5141133;27;20042;-73
2021/12/08 09:04:01;;;;;;;2.95;1.80;;;6.00;99.90;;;;;;4764590;27;10000410;-75
2021/12/08 09:06:33;;;;;;;4.13;2.15;;;6.00;99.90;;;;;;5119142;27;20296;-74
2021/12/08 09:09:04;;;;;;;3.42;1.55;;;6.10;99.90;;;;;;5140159;27;20253;-74
2021/12/08 09:11:38;;;;;;;2.63;2.42;;;6.20;99.90;;;;;;5162016;27;20145;-74
2021/12/08 09:14:32;;;;;;;3.47;1.95;;;6.20;99.90;;;;;;5155660;27;20043;-74
2021/12/08 09:17:16;;;;;;;2.85;1.85;;;6.20;99.90;;;;;;5122075;27;20058;-74
2021/12/08 09:19:55;;;;;;;4.82;1.70;;;6.20;99.90;;;;;;5141054;27;20043;-74
2021/12/08 09:22:29;;;;;;;4.10;1.75;;;6.30;99.90;;;;;;5140769;27;20042;-74
2021/12/08 09:25:18;;;;;;;7.70;2.20;;;6.30;99.90;;;;;;5150682;27;20046;-74
2021/12/08 09:27:51;;;;;;;4.65;2.60;;;6.30;99.90;;;;;;5160833;27;20270;-74
2021/12/08 09:30:18;;;;;;;6.68;4.95;;;6.20;99.90;;;;;;5161131;27;20154;-73
2021/12/08 09:32:53;;;;;;;5.60;2.28;;;6.30;99.90;;;;;;5159530;27;20038;-74
2021/12/08 09:35:24;;;;;;;6.70;2.05;;;6.30;99.90;;;;;;5160381;27;20050;-74
2021/12/08 09:37:57;;;;;;;8.15;3.25;;;6.20;99.90;;;;;;5160343;27;20509;-73
2021/12/08 09:40:41;;;;;;;4.03;1.55;;;6.20;99.90;;;;;;5142069;27;20046;-72
2021/12/08 09:43:12;;;;;;;7.28;2.38;;;6.30;99.90;;;;;;5160394;27;20053;-74
2021/12/08 09:45:49;;;;;;;6.68;2.15;;;6.30;99.90;;;;;;5141905;27;20129;-74
2021/12/08 09:48:15;;;;;;;3.67;2.00;;;6.20;99.90;;;;;;5159912;27;20076;-73
2021/12/08 09:50:41;;;;;;;9.88;2.50;;;6.30;99.90;;;;;;5159165;27;20081;-73
2021/12/08 09:53:08;;;;;;;4.07;1.88;;;6.20;99.90;;;;;;5160449;27;20062;-73
2021/12/08 09:55:35;;;;;;;3.70;2.17;;;6.30;99.90;;;;;;5141070;27;20050;-73
2021/12/08 09:58:03;;;;;;;4.63;2.88;;;6.00;99.90;;;;;;5160116;27;20050;-73
2021/12/08 10:00:32;;;;;;;4.75;2.20;;;6.30;99.90;;;;;;5144454;27;20931;-74
2021/12/08 10:03:00;;;;;;;7.45;2.85;;;6.40;99.90;;;;;;5099455;27;20058;-73
2021/12/08 10:05:28;;;;;;;8.32;1.98;;;6.40;99.90;;;;;;5118055;27;20090;-74
2021/12/08 10:07:55;;;;;;;7.78;3.72;;;6.50;99.90;;;;;;5120388;27;20071;-73
2021/12/08 10:10:21;;;;;;;2.63;2.00;;;6.50;99.90;;;;;;5159702;27;20042;-74
2021/12/08 10:12:48;;;;;;;3.65;1.77;;;6.60;99.90;;;;;;5159585;27;20043;-73
2021/12/08 10:15:19;;;;;;;5.55;2.45;;;6.60;99.90;;;;;;5135072;27;20047;-73
2021/12/08 10:17:46;;;;;;;2.13;1.88;;;6.50;99.90;;;;;;5118385;27;20043;-73
2021/12/08 10:20:22;;;;;;;4.85;2.13;;;6.50;99.90;;;;;;5117542;27;20047;-72
2021/12/08 10:23:07;;;;;;;2.90;2.08;;;6.60;99.90;;;;;;5117495;27;20047;-73
2021/12/08 10:25:36;;;;;;;3.65;2.13;;;6.60;99.90;;;;;;5148340;27;20038;-73
2021/12/08 10:28:38;;;;;;;3.92;2.17;;;6.60;99.90;;;;;;5158168;27;20065;-73
2021/12/08 10:31:09;;;;;;;6.68;2.97;;;6.60;99.90;;;;;;5158633;27;20138;-73
2021/12/08 10:36:45;;;;;;;7.97;2.78;;;6.70;99.90;;;;;;5139626;27;20054;-73
2021/12/08 10:39:19;;;;;;;4.45;2.90;;;6.60;99.90;;;;;;5159387;27;20034;-73
2021/12/08 10:41:53;;;;;;;9.45;2.53;;;6.60;99.90;;;;;;5158417;27;20046;-73
2021/12/08 10:44:26;;;;;;;5.57;2.33;;;6.70;99.90;;;;;;5159325;27;20046;-73
2021/12/08 10:46:57;;;;;;;5.43;2.83;;;6.70;99.90;;;;;;5139456;27;20038;-72
2021/12/08 10:54:53;;;;;;;7.18;2.58;;;6.70;99.90;;;;;;5111643;27;20149;-73
2021/12/08 10:57:31;;;;;;;14.85;2.72;;;6.70;99.90;;;;;;5159236;27;20042;-74
2021/12/08 11:00:08;;;;;;;2.45;2.00;;;6.70;99.90;;;;;;5133901;27;20046;-73
2021/12/08 11:02:58;;;;;;;5.50;2.13;;;6.80;99.90;;;;;;5131991;27;20038;-73
2021/12/08 11:05:24;;;;;;;3.15;2.17;;;6.70;99.90;;;;;;5134954;27;20142;-73
2021/12/08 11:08:05;;;;;;;4.20;2.00;;;6.00;99.90;;;;;;5137188;27;20046;-73
2021/12/08 11:10:33;;;;;;;3.30;2.30;;;6.80;99.90;;;;;;5118862;27;20555;-72
2021/12/08 11:12:59;;;;;;;3.78;2.13;;;6.90;99.90;;;;;;5135104;27;20149;-73
2021/12/08 11:15:27;;;;;;;4.60;2.17;;;6.90;99.90;;;;;;5139916;27;20042;-73
2021/12/08 11:18:10;;;;;;;11.55;4.10;;;7.00;99.90;;;;;;5134368;27;20045;-73
2021/12/08 11:20:50;;;;;;;7.50;2.47;;;7.10;99.90;;;;;;5136790;27;20046;-73
2021/12/08 11:23:28;;;;;;;4.72;2.25;;;7.10;99.90;;;;;;5135377;27;20846;-73
2021/12/08 11:25:56;;;;;;;7.35;3.13;;;7.10;99.90;;;;;;5133047;27;20081;-73
2021/12/08 11:28:24;;;;;;;4.22;2.05;;;7.10;99.90;;;;;;5137252;27;20394;-73
2021/12/08 11:30:51;;;;;;;5.18;2.28;;;7.10;99.90;;;;;;5134204;27;20141;-73
2021/12/08 11:33:21;;;;;;;4.80;2.35;;;7.10;99.90;;;;;;5117674;27;20039;-72
2021/12/08 11:35:48;;;;;;;6.90;2.00;;;7.20;99.90;;;;;;5136873;27;20043;-72
2021/12/08 11:38:23;;;;;;;6.68;2.53;;;7.20;99.90;;;;;;5137969;27;20055;-73
2021/12/08 11:40:48;;;;;;;6.30;2.35;;;7.10;99.90;;;;;;5119488;27;20085;-72
2021/12/08 11:43:14;;;;;;;6.93;3.35;;;7.10;99.90;;;;;;5137760;27;20042;-72
2021/12/08 11:45:42;;;;;;;10.63;3.70;;;7.20;99.90;;;;;;5138617;27;20034;-72
2021/12/08 11:48:22;;;;;;;7.25;3.75;;;7.20;99.90;;;;;;5136611;27;20462;-72
2021/12/08 11:50:48;;;;;;;6.63;3.60;;;7.20;99.90;;;;;;5150527;27;20880;-72
2021/12/08 11:53:21;;;;;;;2.83;2.28;;;7.20;99.90;;;;;;5138198;27;20081;-73
2021/12/08 11:55:46;;;;;;;3.25;2.08;;;7.20;99.90;;;;;;5128013;27;20042;-72
2021/12/08 11:58:12;;;;;;;3.42;2.30;;;7.20;99.90;;;;;;5118713;27;20562;-72
2021/12/08 12:00:41;;;;;;;5.13;2.33;;;7.20;99.90;;;;;;5118141;27;20766;-72
2021/12/08 12:03:13;;;;;;;4.57;2.42;;;7.20;99.90;;;;;;5117445;27;20081;-72
2021/12/08 12:05:47;;;;;;;3.55;2.45;;;7.30;99.90;;;;;;5135141;27;20050;-71
2021/12/08 12:08:16;;;;;;;4.05;2.35;;;7.20;99.90;;;;;;5140156;27;20070;-72
2021/12/08 12:10:44;;;;;;;5.95;2.00;;;7.10;99.90;;;;;;5139231;27;20723;-72
2021/12/08 12:13:11;;;;;;;5.10;2.10;;;7.10;99.90;;;;;;5158159;27;20042;-73
2021/12/08 12:15:40;;;;;;;3.88;3.38;;;7.10;99.90;;;;;;5109182;27;20055;-71
2021/12/08 12:18:06;;;;;;;2.50;1.92;;;7.10;99.90;;;;;;5115771;28;20055;-72
2021/12/08 12:20:48;;;;;;;4.82;2.55;;;7.10;99.90;;;;;;5096802;28;20070;-72
2021/12/08 12:23:25;;;;;;;3.63;2.75;;;7.10;99.90;;;;;;5096813;28;20081;-72
2021/12/08 12:26:22;;;;;;;3.28;2.72;;;7.00;99.90;;;;;;5131264;27;20054;-69
2021/12/08 12:29:22;;;;;;;6.90;2.03;;;7.00;99.90;;;;;;5142948;27;20046;-74
2021/12/08 12:32:23;;;;;;;3.28;2.22;;;7.00;99.90;;;;;;5117308;27;20341;-74
2021/12/08 12:34:53;;;;;;;4.65;1.75;;;6.90;99.90;;;;;;5071926;27;20158;-74
2021/12/08 12:37:30;;;;;;;6.22;2.97;;;6.90;99.90;;;;;;5136812;27;20659;-74
2021/12/08 12:40:03;;;;;;;4.60;2.05;;;6.90;99.90;;;;;;5136514;27;20352;-75
2021/12/08 12:42:43;;;;;;;6.07;2.70;;;6.90;99.90;;;;;;5136067;27;20833;-73
2021/12/08 12:45:13;;;;;;;2.35;2.00;;;6.90;99.90;;;;;;5117639;27;20051;-75
2021/12/08 12:47:39;;;;;;;2.58;2.17;;;6.90;99.90;;;;;;5135883;27;20050;-74
2021/12/08 12:50:10;;;;;;;7.05;2.38;;;6.90;99.90;;;;;;5143579;27;20038;-75
2021/12/08 12:52:57;;;;;;;3.65;2.63;;;6.90;99.90;;;;;;5156324;27;20038;-73
2021/12/08 12:55:28;;;;;;;3.20;2.08;;;6.90;99.90;;;;;;5157424;27;20046;-73
2021/12/08 12:58:05;;;;;;;8.00;2.70;;;6.90;99.90;;;;;;5141675;27;20054;-73
2021/12/08 13:00:47;;;;;;;3.78;2.03;;;6.90;99.90;;;;;;5119426;27;20227;-74
2021/12/08 13:03:34;;;;;;;3.78;1.92;;;6.90;99.90;;;;;;5137453;27;20054;-74
2021/12/08 13:06:00;;;;;;;2.88;2.35;;;6.90;99.90;;;;;;5118122;27;20055;-74
2021/12/08 13:08:35;;;;;;;3.70;2.22;;;6.90;99.90;;;;;;5124885;27;20114;-73
2021/12/08 13:11:10;;;;;;;3.67;2.28;;;6.90;99.90;;;;;;5142613;27;20050;-73
2021/12/08 13:13:52;;;;;;;18.52;2.80;;;6.90;99.90;;;;;;5141059;27;20083;-73
2021/12/08 13:16:22;;;;;;;3.25;1.92;;;6.90;99.90;;;;;;5120519;27;20095;-74
2021/12/08 13:18:59;;;;;;;3.60;1.77;;;6.90;99.90;;;;;;5120348;27;20047;-73
2021/12/08 13:21:43;;;;;;;3.33;2.10;;;6.90;99.90;;;;;;5108460;27;20104;-74
2021/12/08 13:24:34;;;;;;;3.58;2.50;;;6.90;99.90;;;;;;5143662;27;20038;-73
2021/12/08 13:27:06;;;;;;;6.72;1.83;;;6.90;99.90;;;;;;5159280;27;20050;-73
2021/12/08 13:29:34;;;;;;;4.17;2.07;;;6.90;99.90;;;;;;5160679;27;20045;-73
2021/12/08 13:32:10;;;;;;;3.88;2.20;;;6.90;99.90;;;;;;5152063;27;20046;-74
2021/12/08 13:34:41;;;;;;;3.67;1.80;;;6.90;99.90;;;;;;5136684;27;20166;-74
2021/12/08 13:37:23;;;;;;;3.85;1.70;;;6.90;99.90;;;;;;5118163;27;20673;-74
2021/12/08 13:39:52;;;;;;;3.13;2.03;;;6.80;99.90;;;;;;5137952;27;20575;-73
2021/12/08 13:42:34;;;;;;;4.45;2.75;;;6.80;99.90;;;;;;5137561;27;20054;-73
2021/12/08 13:45:10;;;;;;;4.45;1.90;;;6.80;99.90;;;;;;5137790;27;20038;-74
2021/12/08 13:47:40;;;;;;;3.47;2.10;;;6.80;99.90;;;;;;5138247;27;20066;-73
2021/12/08 13:50:06;;;;;;;4.18;2.80;;;6.80;99.90;;;;;;5146630;27;20072;-74
2021/12/08 13:52:34;;;;;;;4.88;2.08;;;6.80;99.90;;;;;;5139706;27;20504;-73
2021/12/08 13:55:08;;;;;;;4.63;2.75;;;6.80;99.90;;;;;;5139550;27;20046;-74
2021/12/08 13:57:41;;;;;;;4.15;2.05;;;6.80;99.90;;;;;;5140406;27;20707;-73
2021/12/08 14:00:10;;;;;;;2.65;2.15;;;6.90;99.90;;;;;;5148720;27;20084;-73
2021/12/08 14:02:36;;;;;;;5.13;2.60;;;6.90;99.90;;;;;;5115261;27;20438;-73
2021/12/08 14:05:07;;;;;;;3.30;1.88;;;6.90;99.90;;;;;;5114836;27;20054;-73